Time;durP1;ratioP1;P1;durP2;ratioP2;P2;SDS_P1;SDS_P2;PMS_P1;PMS_P2;Temp;Humidity;BMP_temperature;BMP_pressure;BME280_temperature;BME280_humidity;BME280_pressure;Samples;Min_cycle;Max_cycle;Signal;HPM_P1;HPM_P2
2023/02/05 00:00:00;;;;;;;16.40;6.93;;;8.70;99.90;;;;;;4097747;28;20050;-69
2023/02/05 00:02:01;;;;;;;23.88;7.95;;;8.70;99.90;;;;;;4094792;28;20398;-69
2023/02/05 00:04:02;;;;;;;21.70;6.88;;;8.80;99.90;;;;;;4098373;28;20039;-69
2023/02/05 00:06:03;;;;;;;22.27;7.45;;;8.80;99.90;;;;;;4095037;28;20039;-69
2023/02/05 00:08:03;;;;;;;18.48;7.80;;;8.80;99.90;;;;;;4096650;28;20518;-69
2023/02/05 00:10:05;;;;;;;25.83;7.60;;;8.80;99.90;;;;;;4096094;28;20048;-70
2023/02/05 00:12:05;;;;;;;19.73;7.55;;;8.80;99.90;;;;;;4096686;28;20039;-69
2023/02/05 00:14:06;;;;;;;17.88;7.45;;;8.80;99.90;;;;;;4095963;28;20101;-69
2023/02/05 00:16:11;;;;;;;21.10;7.88;;;8.80;99.90;;;;;;4096415;28;20043;-69
2023/02/05 00:18:12;;;;;;;19.90;7.45;;;8.80;99.90;;;;;;4096758;28;20126;-69
2023/02/05 00:20:13;;;;;;;18.08;7.43;;;8.80;99.90;;;;;;4096088;28;20039;-69
2023/02/05 00:22:13;;;;;;;19.00;7.75;;;8.80;99.90;;;;;;4097201;28;20036;-69
2023/02/05 00:24:14;;;;;;;21.45;8.45;;;8.80;99.90;;;;;;4095257;28;20047;-69
2023/02/05 00:26:14;;;;;;;22.73;8.25;;;8.90;99.90;;;;;;4096088;28;20039;-69
2023/02/05 00:28:15;;;;;;;18.05;7.57;;;8.80;99.90;;;;;;4096638;28;20047;-69
2023/02/05 00:30:15;;;;;;;21.30;7.55;;;8.80;99.90;;;;;;4099629;28;20041;-69
2023/02/05 00:32:16;;;;;;;17.33;7.82;;;8.80;99.90;;;;;;4097091;28;20043;-69
2023/02/05 00:34:17;;;;;;;19.00;7.82;;;8.90;99.90;;;;;;4096780;28;20679;-69
2023/02/05 00:36:20;;;;;;;19.80;7.85;;;8.90;99.90;;;;;;4095608;28;20046;-68
2023/02/05 00:38:20;;;;;;;17.38;7.68;;;8.80;99.90;;;;;;4096882;28;20070;-69
2023/02/05 00:40:21;;;;;;;14.85;7.65;;;8.90;99.90;;;;;;4095137;28;20436;-70
2023/02/05 00:42:21;;;;;;;20.42;8.43;;;8.80;99.90;;;;;;4096632;28;20055;-69
2023/02/05 00:44:22;;;;;;;20.83;8.32;;;8.80;99.90;;;;;;4097537;28;20039;-69
2023/02/05 00:46:22;;;;;;;21.38;8.45;;;8.80;99.90;;;;;;4095977;28;20189;-69
2023/02/05 00:48:23;;;;;;;16.85;7.13;;;8.80;99.90;;;;;;4096767;28;20043;-69
2023/02/05 00:50:23;;;;;;;18.83;8.02;;;8.80;99.90;;;;;;4095120;28;20051;-69
2023/02/05 00:52:24;;;;;;;20.77;8.23;;;8.80;99.90;;;;;;4096560;28;20048;-69
2023/02/05 00:54:25;;;;;;;23.52;8.30;;;8.80;99.90;;;;;;4095661;28;20044;-69
2023/02/05 00:56:25;;;;;;;23.58;8.20;;;8.80;99.90;;;;;;4095280;28;20046;-69
2023/02/05 00:58:26;;;;;;;19.50;8.10;;;8.80;99.90;;;;;;4099383;28;20032;-69
2023/02/05 01:00:27;;;;;;;16.73;7.72;;;8.80;99.90;;;;;;4088041;29;20115;-70
2023/02/05 01:02:27;;;;;;;17.02;7.75;;;8.80;99.90;;;;;;4096507;28;20046;-69
2023/02/05 01:04:28;;;;;;;19.92;8.07;;;8.80;99.90;;;;;;4097160;28;20550;-69
2023/02/05 01:06:28;;;;;;;21.23;8.02;;;8.80;99.90;;;;;;4093704;28;20557;-70
2023/02/05 01:08:29;;;;;;;22.75;7.28;;;8.80;99.90;;;;;;4079361;29;20403;-69
2023/02/05 01:10:30;;;;;;;17.52;7.07;;;8.80;99.90;;;;;;4094869;28;20047;-69
2023/02/05 01:12:34;;;;;;;23.90;7.80;;;8.80;99.90;;;;;;4095937;28;20126;-69
2023/02/05 01:14:34;;;;;;;20.30;7.15;;;8.80;99.90;;;;;;4095152;28;20041;-68
2023/02/05 01:16:35;;;;;;;18.88;8.00;;;8.80;99.90;;;;;;4095264;28;20110;-69
2023/02/05 01:18:36;;;;;;;16.67;7.05;;;8.70;99.90;;;;;;4096360;28;20515;-69
2023/02/05 01:20:39;;;;;;;16.60;6.72;;;8.80;99.90;;;;;;4095303;28;20443;-69
2023/02/05 01:22:40;;;;;;;16.13;6.32;;;8.80;99.90;;;;;;4094739;28;20054;-69
2023/02/05 01:24:41;;;;;;;12.40;5.63;;;8.70;99.90;;;;;;4094704;28;20487;-69
2023/02/05 01:26:41;;;;;;;19.05;5.82;;;8.70;99.90;;;;;;4094331;28;20047;-69
2023/02/05 01:28:42;;;;;;;10.25;5.95;;;8.70;99.90;;;;;;4096965;28;20042;-70
2023/02/05 01:30:47;;;;;;;13.32;5.85;;;8.70;99.90;;;;;;4095229;28;20039;-69
2023/02/05 01:32:48;;;;;;;20.90;7.10;;;8.70;99.90;;;;;;4095503;28;20038;-69
2023/02/05 01:34:49;;;;;;;17.38;6.60;;;8.70;99.90;;;;;;4098530;28;20043;-69
2023/02/05 01:36:49;;;;;;;16.27;6.25;;;8.70;99.90;;;;;;4095420;28;20039;-69
2023/02/05 01:38:51;;;;;;;18.05;6.82;;;8.70;99.90;;;;;;4093997;28;20050;-69
2023/02/05 01:40:52;;;;;;;12.50;6.13;;;8.70;99.90;;;;;;4075342;29;20082;-69
2023/02/05 01:42:52;;;;;;;15.00;6.07;;;8.70;99.90;;;;;;4096876;28;20039;-69
2023/02/05 01:45:21;;;;;;;17.98;6.68;;;8.70;99.90;;;;;;4097059;28;20480;-69
2023/02/05 01:47:21;;;;;;;23.80;7.68;;;8.70;99.90;;;;;;4094126;28;20035;-69
2023/02/05 01:49:42;;;;;;;16.67;7.50;;;8.60;99.90;;;;;;4095439;28;20086;-69
2023/02/05 01:51:45;;;;;;;19.50;6.88;;;8.70;99.90;;;;;;4094573;28;20505;-69
2023/02/05 01:53:47;;;;;;;17.83;6.65;;;8.60;99.90;;;;;;4093913;28;20486;-70
2023/02/05 01:55:55;;;;;;;25.10;8.02;;;8.60;99.90;;;;;;4095255;28;20035;-69
2023/02/05 01:57:56;;;;;;;18.15;6.93;;;8.60;99.90;;;;;;4094382;28;20094;-69
2023/02/05 01:59:57;;;;;;;21.35;8.00;;;8.60;99.90;;;;;;4095567;28;20171;-69
2023/02/05 02:02:00;;;;;;;23.92;7.30;;;8.60;99.90;;;;;;4094827;28;20056;-69
2023/02/05 02:04:03;;;;;;;;;;;8.60;99.90;;;;;;4093280;28;20175;-69
2023/02/05 02:06:04;;;;;;;;;;;8.60;99.90;;;;;;4092380;28;19957;-68
2023/02/05 02:08:04;;;;;;;22.75;7.78;;;8.60;99.90;;;;;;4094953;28;19914;-69
2023/02/05 02:10:06;;;;;;;23.70;8.50;;;8.60;99.90;;;;;;4095332;28;20118;-70
2023/02/05 02:12:09;;;;;;;19.63;7.45;;;8.60;99.90;;;;;;4095386;28;20043;-69
2023/02/05 02:14:10;;;;;;;21.75;7.47;;;8.60;99.90;;;;;;4092860;28;20047;-69
2023/02/05 02:16:11;;;;;;;18.50;7.50;;;8.60;99.90;;;;;;4094784;28;20047;-69
2023/02/05 02:18:27;;;;;;;22.13;8.48;;;8.60;99.90;;;;;;4096488;28;20039;-69
2023/02/05 02:20:35;;;;;;;20.95;7.78;;;8.60;99.90;;;;;;4092217;28;20039;-69
2023/02/05 02:23:10;;;;;;;19.75;7.72;;;8.60;99.90;;;;;;4097577;28;20032;-69
2023/02/05 02:25:26;;;;;;;19.20;7.68;;;8.60;99.90;;;;;;4092560;28;20050;-70
2023/02/05 02:27:37;;;;;;;18.30;6.93;;;8.60;99.90;;;;;;4095914;28;20051;-69
2023/02/05 02:29:47;;;;;;;21.42;7.45;;;8.60;99.90;;;;;;4091138;28;20094;-69
2023/02/05 02:32:04;;;;;;;17.30;7.50;;;8.60;99.90;;;;;;4095220;28;20035;-70
2023/02/05 02:34:22;;;;;;;14.50;6.95;;;8.60;99.90;;;;;;4095430;28;20054;-69
2023/02/05 02:36:37;;;;;;;12.98;7.28;;;8.60;99.90;;;;;;4095218;28;20418;-69
2023/02/05 02:39:00;;;;;;;18.30;7.95;;;8.60;99.90;;;;;;4093611;28;20032;-69
2023/02/05 02:41:17;;;;;;;25.15;10.23;;;8.70;99.90;;;;;;4092573;28;20082;-69
2023/02/05 02:43:26;;;;;;;21.95;9.70;;;8.60;99.90;;;;;;4094250;28;20035;-69
2023/02/05 02:45:29;;;;;;;27.52;10.75;;;8.60;99.90;;;;;;4094366;28;20041;-70
2023/02/05 02:47:37;;;;;;;22.33;9.70;;;8.60;99.90;;;;;;4094679;28;20039;-69
2023/02/05 02:49:55;;;;;;;21.45;9.68;;;8.60;99.90;;;;;;4094761;28;20031;-69
2023/02/05 02:51:59;;;;;;;27.73;11.55;;;8.60;99.90;;;;;;4091045;28;20031;-69
2023/02/05 02:54:03;;;;;;;24.13;10.88;;;8.60;99.90;;;;;;4093959;28;20034;-70
2023/02/05 02:56:06;;;;;;;23.05;10.93;;;8.60;99.90;;;;;;4091956;28;20032;-69
2023/02/05 02:58:14;;;;;;;25.17;11.70;;;8.50;99.90;;;;;;4093293;28;20069;-69
2023/02/05 03:00:19;;;;;;;25.20;10.48;;;8.50;99.90;;;;;;4096885;28;20039;-70
2023/02/05 03:02:20;;;;;;;21.90;11.07;;;8.50;99.90;;;;;;4093962;28;20522;-69
2023/02/05 03:04:43;;;;;;;24.48;11.30;;;8.50;99.90;;;;;;4093617;28;20039;-69
2023/02/05 03:06:47;;;;;;;22.90;11.87;;;8.50;99.90;;;;;;4091717;28;20035;-68
2023/02/05 03:09:20;;;;;;;34.95;13.43;;;8.50;99.90;;;;;;4092293;28;20295;-70
2023/02/05 03:11:21;;;;;;;23.83;11.95;;;8.50;99.90;;;;;;4084312;28;20035;-69
2023/02/05 03:13:22;;;;;;;33.40;14.50;;;8.50;99.90;;;;;;4082654;29;20530;-70
2023/02/05 03:15:22;;;;;;;26.67;13.05;;;8.50;99.90;;;;;;4092519;28;20031;-69
2023/02/05 03:17:25;;;;;;;26.67;12.98;;;8.50;99.90;;;;;;4094459;28;20039;-69
2023/02/05 03:19:26;;;;;;;28.38;12.80;;;8.50;99.90;;;;;;4094338;28;20411;-70
2023/02/05 03:22:03;;;;;;;32.00;13.55;;;8.50;99.90;;;;;;4092014;28;20051;-69
2023/02/05 03:24:04;;;;;;;23.80;12.45;;;8.50;99.90;;;;;;4061373;29;20070;-70
2023/02/05 03:26:04;;;;;;;28.33;13.88;;;8.50;99.90;;;;;;4079471;28;20075;-69
2023/02/05 03:28:05;;;;;;;34.80;15.15;;;8.50;99.90;;;;;;4094029;28;20364;-69
2023/02/05 03:30:07;;;;;;;31.55;13.45;;;8.50;99.90;;;;;;4099420;28;20035;-70
2023/02/05 03:32:37;;;;;;;26.65;12.80;;;8.50;99.90;;;;;;4097077;28;20024;-69
2023/02/05 03:34:40;;;;;;;28.98;13.88;;;8.50;99.90;;;;;;4055525;29;20040;-68
2023/02/05 03:36:59;;;;;;;32.55;14.88;;;8.60;99.90;;;;;;4093149;28;20035;-69
2023/02/05 03:39:14;;;;;;;31.42;15.00;;;8.60;99.90;;;;;;4093730;29;20031;-70
2023/02/05 03:41:54;;;;;;;32.83;15.25;;;8.60;99.90;;;;;;4095689;28;20442;-69
2023/02/05 03:44:07;;;;;;;37.28;16.50;;;8.60;99.90;;;;;;4098057;28;20054;-69
2023/02/05 03:46:24;;;;;;;40.35;18.75;;;8.50;99.90;;;;;;4097313;28;20034;-69
2023/02/05 03:48:30;;;;;;;56.00;23.05;;;8.50;99.90;;;;;;4091849;28;20047;-70
2023/02/05 03:50:38;;;;;;;41.88;21.85;;;8.50;99.90;;;;;;4095884;28;20031;-70
2023/02/05 03:52:53;;;;;;;47.38;20.48;;;8.50;99.90;;;;;;4093343;28;20048;-70
2023/02/05 03:55:12;;;;;;;52.75;22.90;;;8.50;99.90;;;;;;4096336;28;20054;-72
2023/02/05 03:57:32;;;;;;;44.78;21.50;;;8.50;99.90;;;;;;4094815;28;20070;-70
2023/02/05 03:59:35;;;;;;;41.00;20.08;;;8.50;99.90;;;;;;4100793;28;20479;-71
2023/02/05 04:01:36;;;;;;;;;;;8.50;99.90;;;;;;4097245;28;20039;-70
2023/02/05 04:03:36;;;;;;;38.10;19.17;;;8.50;99.90;;;;;;4096516;28;19994;-69
2023/02/05 04:05:37;;;;;;;42.90;20.23;;;8.60;99.90;;;;;;4095062;28;20552;-70
2023/02/05 04:07:38;;;;;;;43.08;22.48;;;8.60;99.90;;;;;;4097265;28;20033;-70
2023/02/05 04:09:38;;;;;;;46.55;21.48;;;8.60;99.90;;;;;;4097292;28;20098;-70
2023/02/05 04:11:39;;;;;;;43.67;21.60;;;8.60;99.90;;;;;;4095525;28;20031;-71
2023/02/05 04:13:39;;;;;;;47.13;22.83;;;8.60;99.90;;;;;;4092921;28;20027;-71
2023/02/05 04:15:40;;;;;;;42.25;21.73;;;8.60;99.90;;;;;;4095286;28;20031;-70
2023/02/05 04:17:41;;;;;;;54.70;25.65;;;8.50;99.90;;;;;;4097124;28;20039;-70
2023/02/05 04:19:41;;;;;;;44.28;23.05;;;8.50;99.90;;;;;;4096693;28;20042;-71
2023/02/05 04:21:42;;;;;;;42.38;21.42;;;8.50;99.90;;;;;;4095508;28;20619;-72
2023/02/05 04:23:43;;;;;;;44.33;21.00;;;8.50;99.90;;;;;;4097482;28;20035;-71
2023/02/05 04:25:44;;;;;;;37.47;20.02;;;8.50;99.90;;;;;;4095786;28;20451;-71
2023/02/05 04:27:44;;;;;;;35.50;19.52;;;8.50;99.90;;;;;;4096599;28;20046;-70
2023/02/05 04:29:45;;;;;;;34.85;17.83;;;8.50;99.90;;;;;;4098477;28;20058;-69
2023/02/05 04:31:46;;;;;;;37.17;20.02;;;8.50;99.90;;;;;;4095223;28;20394;-70
2023/02/05 04:33:46;;;;;;;36.55;18.10;;;8.50;99.90;;;;;;4096861;28;20390;-70
2023/02/05 04:35:47;;;;;;;30.02;17.05;;;8.50;99.90;;;;;;4095988;28;20042;-71
2023/02/05 04:37:47;;;;;;;37.97;19.23;;;8.50;99.90;;;;;;4096580;28;20036;-71
2023/02/05 04:39:48;;;;;;;33.38;17.60;;;8.60;99.90;;;;;;4097167;28;20041;-71
2023/02/05 04:41:48;;;;;;;34.65;18.63;;;8.60;99.90;;;;;;4095113;28;20043;-71
2023/02/05 04:43:49;;;;;;;39.67;20.02;;;8.60;99.90;;;;;;4095476;28;20557;-72
2023/02/05 04:45:50;;;;;;;40.83;20.50;;;8.60;99.90;;;;;;4097304;28;20061;-71
2023/02/05 04:47:50;;;;;;;31.13;17.95;;;8.60;99.90;;;;;;4096673;28;20089;-71
2023/02/05 04:49:51;;;;;;;37.03;19.13;;;8.60;99.90;;;;;;4096835;28;20028;-72
2023/02/05 04:51:51;;;;;;;44.65;22.23;;;8.70;99.90;;;;;;4093997;28;20135;-71
2023/02/05 04:53:52;;;;;;;44.13;22.77;;;8.70;99.90;;;;;;4096459;28;20027;-71
2023/02/05 04:56:02;;;;;;;43.72;22.55;;;8.70;99.90;;;;;;4094507;28;20090;-71
2023/02/05 04:58:03;;;;;;;52.05;25.25;;;8.70;99.90;;;;;;4093436;28;20035;-71
2023/02/05 05:00:04;;;;;;;48.30;24.83;;;8.70;99.90;;;;;;4096390;28;21226;-71
2023/02/05 05:02:05;;;;;;;47.05;24.70;;;8.60;99.90;;;;;;4095339;28;20086;-71
2023/02/05 05:04:05;;;;;;;49.13;24.33;;;8.60;99.90;;;;;;4097197;28;20475;-72
2023/02/05 05:06:07;;;;;;;48.58;25.33;;;8.60;99.90;;;;;;4094580;28;20130;-71
2023/02/05 05:08:07;;;;;;;44.40;25.65;;;8.60;99.90;;;;;;4095677;28;20068;-70
2023/02/05 05:10:08;;;;;;;44.10;24.30;;;8.60;99.90;;;;;;4085864;28;20044;-72
2023/02/05 05:12:09;;;;;;;50.22;26.60;;;8.60;99.90;;;;;;4089017;28;20131;-72
2023/02/05 05:14:09;;;;;;;46.28;26.73;;;8.60;99.90;;;;;;4094350;28;20027;-71
2023/02/05 05:16:11;;;;;;;47.03;26.30;;;8.60;99.90;;;;;;4090258;28;20536;-71
2023/02/05 05:18:11;;;;;;;57.80;30.08;;;8.50;99.90;;;;;;4096355;28;20118;-71
2023/02/05 05:20:12;;;;;;;55.13;29.45;;;8.50;99.90;;;;;;4088627;28;20071;-72
2023/02/05 05:22:12;;;;;;;45.65;26.00;;;8.50;99.90;;;;;;4091017;28;20039;-71
2023/02/05 05:24:13;;;;;;;42.63;24.73;;;8.50;99.90;;;;;;4089152;28;20039;-72
2023/02/05 05:26:13;;;;;;;46.50;26.85;;;8.60;99.90;;;;;;4097741;28;20086;-70
2023/02/05 05:28:15;;;;;;;48.97;28.02;;;8.50;99.90;;;;;;4094810;28;20071;-71
2023/02/05 05:30:16;;;;;;;43.63;25.63;;;8.50;99.90;;;;;;4092901;28;20027;-72
2023/02/05 05:32:16;;;;;;;48.08;27.77;;;8.50;99.90;;;;;;4095332;28;20271;-71
2023/02/05 05:34:17;;;;;;;48.85;26.48;;;8.50;99.90;;;;;;4094853;28;20045;-71
2023/02/05 05:36:18;;;;;;;55.50;29.05;;;8.50;99.90;;;;;;4093123;28;20042;-71
2023/02/05 05:38:18;;;;;;;46.47;26.33;;;8.50;99.90;;;;;;4096527;28;20035;-71
2023/02/05 05:44:57;;;;;;;46.22;26.05;;;8.50;99.90;;;;;;4094746;28;20094;-71
2023/02/05 05:46:58;;;;;;;46.00;25.67;;;8.50;99.90;;;;;;4094587;28;20039;-72
2023/02/05 05:49:00;;;;;;;41.85;24.00;;;8.50;99.90;;;;;;4098834;28;20174;-72
2023/02/05 05:51:01;;;;;;;;;;;8.50;99.90;;;;;;4095372;28;20027;-71
2023/02/05 05:53:01;;;;;;;46.25;25.52;;;8.50;99.90;;;;;;4092064;28;20365;-71
2023/02/05 05:55:02;;;;;;;44.92;25.27;;;8.50;99.90;;;;;;4092826;28;20376;-72
2023/02/05 05:57:03;;;;;;;43.95;23.80;;;8.50;99.90;;;;;;4095336;28;20042;-71
2023/02/05 05:59:04;;;;;;;43.28;23.67;;;8.50;99.90;;;;;;4095224;28;20040;-72
2023/02/05 06:01:06;;;;;;;45.67;25.00;;;8.50;99.90;;;;;;4100147;28;20498;-72
2023/02/05 06:03:09;;;;;;;39.95;23.40;;;8.50;99.90;;;;;;4094618;28;20472;-72
2023/02/05 06:05:10;;;;;;;39.58;23.38;;;8.50;99.90;;;;;;4095949;28;20031;-72
2023/02/05 06:07:11;;;;;;;38.00;22.10;;;8.40;99.90;;;;;;4093344;28;20114;-70
2023/02/05 06:09:11;;;;;;;36.58;21.20;;;8.40;99.90;;;;;;4097127;28;20462;-71
2023/02/05 06:11:12;;;;;;;37.10;22.45;;;8.40;99.90;;;;;;4093853;28;20031;-71
2023/02/05 06:13:13;;;;;;;35.58;21.63;;;8.40;99.90;;;;;;4092900;28;20564;-71
2023/02/05 06:15:13;;;;;;;38.00;21.48;;;8.40;99.90;;;;;;4090161;28;20023;-71
2023/02/05 06:17:14;;;;;;;34.15;20.13;;;8.40;99.90;;;;;;4078756;28;20024;-70
2023/02/05 06:19:14;;;;;;;36.10;21.40;;;8.40;99.90;;;;;;4095088;29;20110;-71
2023/02/05 06:21:15;;;;;;;36.72;20.33;;;8.40;99.90;;;;;;4094369;28;20035;-70
2023/02/05 06:23:15;;;;;;;35.03;19.95;;;8.40;99.90;;;;;;4089418;28;20435;-70
2023/02/05 06:25:16;;;;;;;33.25;19.88;;;8.40;99.90;;;;;;4087407;28;20035;-70
2023/02/05 06:27:17;;;;;;;30.45;18.15;;;8.40;99.90;;;;;;4087549;28;20031;-70
2023/02/05 06:29:17;;;;;;;30.75;17.75;;;8.40;99.90;;;;;;4095738;28;20030;-70
2023/02/05 06:31:19;;;;;;;30.92;18.95;;;8.30;99.90;;;;;;4093711;28;20023;-70
2023/02/05 06:33:19;;;;;;;31.13;17.60;;;8.30;99.90;;;;;;4092446;28;20046;-71
2023/02/05 06:35:20;;;;;;;35.42;17.52;;;8.20;99.90;;;;;;4093458;28;20024;-70
2023/02/05 06:37:20;;;;;;;32.22;18.35;;;8.20;99.90;;;;;;4092957;28;20043;-70
2023/02/05 06:39:21;;;;;;;26.63;15.95;;;8.10;99.90;;;;;;4094859;28;20111;-70
2023/02/05 06:41:22;;;;;;;32.90;17.73;;;8.10;99.90;;;;;;4098081;28;20029;-71
2023/02/05 06:43:22;;;;;;;28.92;15.90;;;8.10;99.90;;;;;;4095755;28;20038;-71
2023/02/05 06:45:23;;;;;;;25.45;15.00;;;8.10;99.90;;;;;;4093948;28;20490;-71
2023/02/05 06:47:23;;;;;;;25.95;14.30;;;8.10;99.90;;;;;;4092800;28;20492;-71
2023/02/05 06:49:24;;;;;;;29.15;15.35;;;8.10;99.90;;;;;;4094838;28;20093;-70
2023/02/05 06:51:25;;;;;;;24.40;14.48;;;8.10;99.90;;;;;;4093095;28;20032;-70
2023/02/05 06:53:25;;;;;;;23.63;13.85;;;8.10;99.90;;;;;;4092910;28;20039;-70
2023/02/05 06:55:26;;;;;;;24.58;14.57;;;8.10;99.90;;;;;;4091757;28;20050;-70
2023/02/05 06:57:26;;;;;;;26.48;14.18;;;8.10;99.90;;;;;;4093080;28;20032;-70
2023/02/05 06:59:27;;;;;;;26.35;14.30;;;8.10;99.90;;;;;;4094037;28;20063;-70
2023/02/05 07:01:28;;;;;;;24.35;13.48;;;8.10;99.90;;;;;;4090020;28;20042;-70
2023/02/05 07:03:28;;;;;;;25.95;14.70;;;8.00;99.90;;;;;;4098346;28;20043;-70
2023/02/05 07:05:29;;;;;;;28.35;15.80;;;8.00;99.90;;;;;;4099658;28;20074;-70
2023/02/05 07:07:29;;;;;;;22.85;13.40;;;8.00;99.90;;;;;;4094884;28;20058;-71
2023/02/05 07:09:30;;;;;;;23.80;14.27;;;8.00;99.90;;;;;;4100511;28;20047;-70
2023/02/05 07:11:31;;;;;;;23.52;13.80;;;7.90;99.90;;;;;;4096505;28;20121;-71
2023/02/05 07:13:31;;;;;;;28.48;14.55;;;7.90;99.90;;;;;;4096485;28;20070;-71
2023/02/05 07:15:34;;;;;;;23.15;12.95;;;8.00;99.90;;;;;;4095172;28;20110;-71
2023/02/05 07:17:35;;;;;;;24.27;11.52;;;7.90;99.90;;;;;;4092967;28;20715;-70
2023/02/05 07:19:36;;;;;;;22.98;11.70;;;8.00;99.90;;;;;;4095456;28;20054;-71
2023/02/05 07:21:37;;;;;;;23.17;12.75;;;7.90;99.90;;;;;;4095808;28;20034;-71
2023/02/05 07:23:37;;;;;;;23.50;11.35;;;7.90;99.90;;;;;;4096380;28;20039;-71
2023/02/05 07:25:38;;;;;;;20.40;11.48;;;7.90;99.90;;;;;;4093166;28;20229;-70
2023/02/05 07:27:38;;;;;;;20.92;11.93;;;7.90;99.90;;;;;;4096693;28;20570;-71
2023/02/05 07:29:39;;;;;;;24.58;12.38;;;8.00;99.90;;;;;;4096918;28;20031;-71
2023/02/05 07:31:40;;;;;;;21.55;12.55;;;8.00;99.90;;;;;;4095802;28;20033;-70
2023/02/05 07:33:44;;;;;;;19.15;12.20;;;8.00;99.90;;;;;;4091063;28;20039;-70
2023/02/05 07:35:45;;;;;;;31.67;13.60;;;7.90;99.90;;;;;;4078494;29;20074;-71
2023/02/05 07:37:45;;;;;;;28.13;14.50;;;8.00;99.90;;;;;;4090315;28;20407;-71
2023/02/05 07:39:46;;;;;;;21.30;12.70;;;7.90;99.90;;;;;;4094174;28;20035;-72
2023/02/05 07:41:47;;;;;;;20.30;11.45;;;7.90;99.90;;;;;;4097506;28;20039;-70
2023/02/05 07:43:50;;;;;;;25.25;13.00;;;7.90;99.90;;;;;;4097355;28;20119;-70
2023/02/05 07:45:59;;;;;;;19.30;11.98;;;7.90;99.90;;;;;;4094214;28;20150;-70
2023/02/05 07:47:59;;;;;;;21.50;12.25;;;7.80;99.90;;;;;;4094766;28;20510;-70
2023/02/05 07:50:00;;;;;;;19.25;10.70;;;7.80;99.90;;;;;;4093720;29;20086;-70
2023/02/05 07:52:00;;;;;;;14.00;8.13;;;7.70;99.90;;;;;;4083775;29;20028;-70
2023/02/05 07:54:08;;;;;;;15.75;9.10;;;7.70;99.90;;;;;;4096599;28;20031;-70
2023/02/05 07:56:09;;;;;;;16.63;9.00;;;7.70;99.90;;;;;;4094865;28;20035;-69
2023/02/05 07:58:10;;;;;;;15.80;8.90;;;7.70;99.90;;;;;;4095238;28;20094;-70
2023/02/05 08:00:11;;;;;;;12.98;7.90;;;7.70;99.90;;;;;;4094959;28;20517;-69
2023/02/05 08:02:12;;;;;;;12.48;7.00;;;7.60;99.90;;;;;;4097324;28;20483;-70
2023/02/05 08:04:12;;;;;;;10.60;4.93;;;7.60;99.90;;;;;;4100937;28;20045;-69
2023/02/05 08:06:14;;;;;;;9.30;4.55;;;7.50;99.90;;;;;;4096914;28;20106;-69
2023/02/05 08:08:15;;;;;;;10.75;3.38;;;7.40;99.90;;;;;;4095895;28;20039;-69
2023/02/05 08:10:16;;;;;;;4.10;1.92;;;7.40;99.90;;;;;;4094087;28;20047;-70
2023/02/05 08:12:16;;;;;;;4.60;1.92;;;7.30;99.90;;;;;;4092801;28;20111;-69
2023/02/05 08:14:17;;;;;;;5.65;1.55;;;7.30;99.90;;;;;;4090900;28;20039;-70
2023/02/05 08:16:17;;;;;;;7.30;1.85;;;7.30;99.90;;;;;;4088759;28;20035;-70
2023/02/05 08:18:18;;;;;;;4.65;1.50;;;7.20;99.90;;;;;;4093029;28;20126;-70
2023/02/05 08:20:18;;;;;;;3.45;1.20;;;7.20;99.90;;;;;;4097389;28;20050;-70
2023/02/05 08:22:19;;;;;;;4.72;1.15;;;7.20;99.90;;;;;;4096030;28;20561;-69
2023/02/05 08:24:20;;;;;;;6.55;1.50;;;7.20;99.90;;;;;;4097810;28;20035;-69
2023/02/05 08:26:20;;;;;;;5.05;1.15;;;7.10;99.90;;;;;;4093131;28;20039;-69
2023/02/05 08:28:23;;;;;;;2.05;0.68;;;7.10;99.90;;;;;;4093937;28;20042;-69
2023/02/05 08:30:23;;;;;;;8.82;1.45;;;7.10;99.90;;;;;;4093288;29;20411;-70
2023/02/05 08:32:24;;;;;;;4.03;1.05;;;7.10;99.90;;;;;;4096526;28;20044;-70
2023/02/05 08:34:25;;;;;;;5.45;0.98;;;7.20;99.90;;;;;;4091532;28;20906;-70
2023/02/05 08:36:25;;;;;;;4.60;1.25;;;7.20;99.90;;;;;;4092347;28;20035;-70
2023/02/05 08:38:26;;;;;;;3.55;0.88;;;7.20;99.90;;;;;;4092816;28;20403;-70
2023/02/05 08:40:27;;;;;;;7.20;1.30;;;7.20;99.90;;;;;;4090516;28;20039;-70
2023/02/05 08:42:28;;;;;;;6.15;1.40;;;7.20;99.90;;;;;;4094833;28;20027;-70
2023/02/05 08:44:28;;;;;;;5.90;1.45;;;7.20;99.90;;;;;;4096013;28;20062;-70
2023/02/05 08:46:29;;;;;;;3.42;0.90;;;7.20;99.90;;;;;;4093404;28;20120;-70
2023/02/05 08:48:29;;;;;;;4.95;1.05;;;7.30;99.90;;;;;;4096277;28;20047;-69
2023/02/05 08:50:30;;;;;;;5.90;1.10;;;7.20;99.90;;;;;;4094710;28;21284;-70
2023/02/05 08:52:31;;;;;;;5.60;1.05;;;7.30;99.90;;;;;;4094566;28;20047;-70
2023/02/05 08:54:31;;;;;;;6.70;0.88;;;7.30;99.90;;;;;;4094477;28;20545;-70
2023/02/05 08:56:32;;;;;;;3.60;0.77;;;7.30;99.90;;;;;;4094336;28;20399;-70
2023/02/05 08:58:33;;;;;;;13.93;1.75;;;7.30;99.90;;;;;;4094073;28;20039;-70
2023/02/05 09:00:36;;;;;;;5.55;0.90;;;7.30;99.90;;;;;;4094714;28;20042;-69
2023/02/05 09:02:37;;;;;;;8.80;1.50;;;7.30;99.90;;;;;;4095856;28;20375;-70
2023/02/05 09:04:37;;;;;;;4.82;1.05;;;7.30;99.90;;;;;;4095159;28;20038;-70
2023/02/05 09:06:38;;;;;;;4.78;1.35;;;7.30;99.90;;;;;;4092029;28;20050;-69
2023/02/05 09:08:39;;;;;;;8.13;1.55;;;7.30;99.90;;;;;;4084652;28;20039;-70
2023/02/05 09:10:43;;;;;;;8.77;1.30;;;7.30;99.90;;;;;;4091423;28;20476;-70
2023/02/05 09:12:47;;;;;;;10.48;1.70;;;7.30;99.90;;;;;;4095144;28;20039;-70
2023/02/05 09:14:48;;;;;;;15.57;1.77;;;7.30;99.90;;;;;;4092791;28;20035;-70
2023/02/05 09:16:48;;;;;;;6.22;1.88;;;7.30;99.90;;;;;;4086340;28;20483;-70
2023/02/05 09:18:49;;;;;;;10.73;1.95;;;7.30;99.90;;;;;;4094245;28;20397;-70
2023/02/05 09:20:50;;;;;;;11.95;1.60;;;7.30;99.90;;;;;;4102078;28;20039;-70
2023/02/05 09:22:52;;;;;;;12.85;1.88;;;7.40;99.90;;;;;;4095300;28;20398;-70
2023/02/05 09:24:53;;;;;;;14.30;2.42;;;7.40;99.90;;;;;;4090367;28;20038;-69
2023/02/05 09:26:54;;;;;;;14.93;2.75;;;7.40;99.90;;;;;;4093628;28;20066;-70
2023/02/05 09:28:55;;;;;;;6.75;1.60;;;7.40;99.90;;;;;;4094287;28;20090;-70
2023/02/05 09:30:55;;;;;;;9.23;1.52;;;7.40;99.90;;;;;;4090403;28;20043;-70
2023/02/05 09:32:56;;;;;;;11.77;2.33;;;7.40;99.90;;;;;;4095143;28;20490;-70
2023/02/05 09:34:56;;;;;;;8.20;1.73;;;7.40;99.90;;;;;;4092228;28;20035;-70
2023/02/05 09:36:57;;;;;;;11.40;1.98;;;7.40;99.90;;;;;;4088827;28;20043;-70
2023/02/05 09:38:58;;;;;;;7.05;1.35;;;7.40;99.90;;;;;;4089235;28;20027;-70
2023/02/05 09:41:13;;;;;;;13.25;1.90;;;7.40;99.90;;;;;;4097898;28;20042;-70
2023/02/05 09:43:31;;;;;;;10.75;1.75;;;7.30;99.90;;;;;;4088677;28;20589;-70
2023/02/05 09:45:47;;;;;;;9.38;1.73;;;7.40;99.90;;;;;;4090062;28;20043;-70
2023/02/05 09:48:01;;;;;;;8.80;1.67;;;7.40;99.90;;;;;;4094313;28;20035;-70
2023/02/05 09:50:15;;;;;;;16.95;2.08;;;7.40;99.90;;;;;;4094387;28;20050;-71
2023/02/05 09:52:20;;;;;;;9.27;2.13;;;7.50;99.90;;;;;;4092737;28;20035;-70
2023/02/05 09:54:34;;;;;;;8.20;1.50;;;7.50;99.90;;;;;;4096546;28;20051;-70
2023/02/05 09:56:35;;;;;;;8.43;1.58;;;7.50;99.90;;;;;;4092113;28;20545;-70
2023/02/05 09:58:43;;;;;;;10.43;1.60;;;7.50;99.90;;;;;;4093353;28;20061;-71
2023/02/05 10:01:15;;;;;;;8.38;1.73;;;7.50;99.90;;;;;;4089860;28;20039;-70
2023/02/05 10:03:26;;;;;;;7.88;1.85;;;7.50;99.90;;;;;;4091441;28;20027;-71
2023/02/05 10:05:35;;;;;;;7.93;1.48;;;7.50;99.90;;;;;;4093204;28;20483;-70
2023/02/05 10:08:18;;;;;;;8.93;1.40;;;7.50;99.90;;;;;;4087668;28;20031;-70
2023/02/05 10:10:23;;;;;;;12.98;1.98;;;7.50;99.90;;;;;;4067764;29;20139;-70
2023/02/05 10:12:41;;;;;;;7.38;1.77;;;7.50;99.90;;;;;;4077143;29;20483;-69
2023/02/05 10:15:09;;;;;;;10.30;2.00;;;7.50;99.90;;;;;;4077156;29;20395;-70
2023/02/05 10:17:12;;;;;;;9.52;1.88;;;7.50;99.90;;;;;;4077283;29;20428;-70
2023/02/05 10:19:40;;;;;;;13.23;2.15;;;7.50;99.90;;;;;;4075416;29;20033;-70
2023/02/05 10:21:57;;;;;;;11.35;2.22;;;7.50;99.90;;;;;;4066835;29;20027;-71
2023/02/05 10:24:12;;;;;;;12.98;2.22;;;7.50;99.90;;;;;;4077643;29;20028;-70
2023/02/05 10:26:16;;;;;;;11.63;1.88;;;7.50;99.90;;;;;;4074966;29;20036;-69
2023/02/05 10:28:32;;;;;;;18.08;2.67;;;7.50;99.90;;;;;;4074900;28;20036;-70
2023/02/05 10:30:48;;;;;;;13.00;2.28;;;7.50;99.90;;;;;;4078342;29;20491;-71
2023/02/05 10:33:02;;;;;;;12.70;2.55;;;7.50;99.90;;;;;;4079225;29;20040;-70
2023/02/05 10:35:25;;;;;;;12.00;2.53;;;7.50;99.90;;;;;;4077450;28;20040;-71
2023/02/05 10:37:41;;;;;;;12.18;2.85;;;7.60;99.90;;;;;;4073235;29;20032;-70
2023/02/05 10:39:43;;;;;;;14.25;2.78;;;7.50;99.90;;;;;;4076473;29;20035;-70
2023/02/05 10:41:50;;;;;;;10.63;2.17;;;7.50;99.90;;;;;;4077371;29;20048;-70
2023/02/05 10:43:52;;;;;;;18.17;2.38;;;7.50;99.90;;;;;;4077036;29;20031;-70
2023/02/05 10:45:54;;;;;;;20.17;2.90;;;7.60;99.90;;;;;;4071126;29;20040;-70
2023/02/05 10:48:19;;;;;;;17.55;3.38;;;7.60;99.90;;;;;;4074632;29;20147;-70